Beaver County Airport
KBVI : now visible

Airfield :











YOU CAN JOIN US ON...

 
LOGIN :

Register | Disclaimer

   EN    FR    IT 

 









Legend :    VFR   Marginal VFR   IFR   Intensive IFR   Very Intensive IFR
Visi :
Ceiling :
>= 8 km
>= 3000ft
5 to 8 km
1000 to 3000 ft
1500m to 5 km
500 to 1000 ft
800 to 1500m
200 to 500 ft
< 800m
< 200 ft
Symbols :   Thunderstorms  Fog  Heavy snow  Heavy precipitations  Wind > 20 kt






- Airport Elevation : 1253 ft


KBVI - Beaver County

CURRENT METAR :
  • 021935Z AUTO 32012G17KT 10SM CLR 14/M04 A3000 RMK AO2 T01401040

EXPIRED METARs :
  • 021916Z AUTO 32013G21KT 290V350 10SM SCT070 14/M04 A3001 RMK AO2 T01361041
  • 021855Z AUTO 31012G21KT 280V340 10SM SCT065 14/M04 A3001 RMK AO2 T01371043
  • 021836Z AUTO 34013G21KT 10SM SCT065 13/M04 A3001 RMK AO2 T01341044
  • 021815Z AUTO 35012G20KT 10SM CLR 13/M04 A3002 RMK AO2 T01281042
  • 021755Z AUTO 32009G19KT 10SM SCT065 14/M03 A3002 RMK AO2 T01351034
  • 021735Z AUTO 35009G20KT 10SM CLR 13/M04 A3002 RMK AO2 T01261039
  • 021715Z AUTO 33012G26KT 10SM CLR 13/M05 A3003 RMK AO2 T01261047
  • 021655Z AUTO 31010G22KT 280V010 10SM CLR 12/M04 A3003 RMK AO2 T01241044

TAF KBVI
Valid from the 02 at 18:00 until the 03 at 18:00 UTC


021720Z 0218/0318 32011G24KT P6SM FEW050
FM030100 32008KT P6SM SKC



MET'MAP, your aeronautical weather chart ! - Copyright ORBIFLY December 2007 - Disclaimer

ORBIFLY MET'MAP TEAM :

Programming & Development : Alexandra Zaïnal
Concept & original design : Baudouin d'Aumeries
Assistance for programming : Marc-Olivier Méhu
Technical & hardware support : Manuel Goepfert

Contact : metmap@orbifly.com




SOURCES & CREDITS :

   NOAA       Earth
Advisory